Terminal Aerodrome Forecast
Issued by NWS

Home | Current Version | Previous Version | Text Only | Print | Product List | Glossary On
Versions: 1 2 3 4 5 6 7 8 9 10 11 12
000
FTUS44 KJAN 221700 RRA
TAFGTR
TAF
KGTR 221745Z 2218/2318 01012KT P6SM FEW050
     FM230000 36005KT P6SM SKC
     FM231400 05007KT P6SM FEW250=

USA.gov is the U.S. government's official web portal to all federal, state and local government web resources and services.